createdAt,value
2023-05-15T00:00:51.998Z,5
2023-05-15T00:01:52.000Z,5
2023-05-15T00:02:52.339Z,5
2023-05-15T00:03:52.263Z,4
2023-05-15T00:04:52.072Z,4
2023-05-15T00:05:52.007Z,4
2023-05-15T00:06:51.979Z,4
2023-05-15T00:07:51.990Z,5
2023-05-15T00:08:52.063Z,5
2023-05-15T00:09:52.006Z,5
2023-05-15T00:11:00.987Z,5
2023-05-15T00:11:52.055Z,6
2023-05-15T00:12:51.999Z,5
2023-05-15T00:13:51.988Z,2
2023-05-15T00:14:51.985Z,5
2023-05-15T00:15:52.010Z,5
2023-05-15T00:16:51.998Z,3
2023-05-15T00:17:52.021Z,6
2023-05-15T00:18:52.106Z,4
2023-05-15T00:19:52.015Z,4
2023-05-15T00:20:52.049Z,3
2023-05-15T00:21:51.989Z,5
2023-05-15T00:22:51.994Z,4
2023-05-15T00:23:52.057Z,3
2023-05-15T00:24:51.985Z,5
2023-05-15T00:25:52.024Z,6
2023-05-15T00:26:52.012Z,5
2023-05-15T00:27:51.996Z,4
2023-05-15T00:28:52.005Z,4
2023-05-15T00:29:52.020Z,4
2023-05-15T00:30:52.002Z,5
2023-05-15T00:31:52.124Z,4
2023-05-15T00:32:52.023Z,5
2023-05-15T00:33:52.016Z,2
2023-05-15T00:34:52.012Z,4
2023-05-15T00:36:52.000Z,4
2023-05-15T00:37:52.006Z,5
2023-05-15T00:39:51.999Z,3
2023-05-15T00:40:51.991Z,5
2023-05-15T00:41:52.011Z,4
2023-05-15T00:42:52.031Z,4
2023-05-15T00:43:52.129Z,2
2023-05-15T00:44:52.022Z,4
2023-05-15T00:45:52.001Z,6
2023-05-15T00:46:52.081Z,3
2023-05-15T00:47:52.102Z,6
2023-05-15T00:48:52.032Z,6
2023-05-15T00:49:52.039Z,5
2023-05-15T00:50:52.008Z,7
2023-05-15T00:51:52.003Z,7
2023-05-15T00:52:52.007Z,3
2023-05-15T00:53:52.154Z,5
2023-05-15T00:54:52.043Z,3
2023-05-15T00:55:52.043Z,5
2023-05-15T00:56:51.995Z,5
2023-05-15T00:57:52.007Z,3
2023-05-15T00:58:52.021Z,5
2023-05-15T00:59:52.059Z,5
2023-05-15T01:01:52.022Z,3
2023-05-15T01:02:52.149Z,4
2023-05-15T01:03:52.027Z,4
2023-05-15T01:04:52.049Z,3
2023-05-15T01:05:52.064Z,5
2023-05-15T01:06:52.062Z,5
2023-05-15T01:07:52.194Z,4
2023-05-15T01:08:52.097Z,5
2023-05-15T01:09:52.090Z,4
2023-05-15T01:10:52.001Z,3
2023-05-15T01:11:51.997Z,4
2023-05-15T01:13:52.005Z,2
2023-05-15T01:14:52.066Z,6
2023-05-15T01:15:52.024Z,5
2023-05-15T01:16:52.033Z,5
2023-05-15T01:17:52.110Z,4
2023-05-15T01:18:52.069Z,4
2023-05-15T01:19:52.134Z,6
2023-05-15T01:20:52.013Z,5
2023-05-15T01:21:52.021Z,3
2023-05-15T01:23:52.014Z,5
2023-05-15T01:24:52.027Z,5
2023-05-15T01:25:52.010Z,4
2023-05-15T01:26:52.057Z,6
2023-05-15T01:27:52.014Z,3
2023-05-15T01:28:52.023Z,5
2023-05-15T01:29:52.011Z,4
2023-05-15T01:30:52.006Z,5
2023-05-15T01:31:52.073Z,8
2023-05-15T01:33:52.031Z,6
2023-05-15T01:34:52.022Z,6
2023-05-15T01:35:52.008Z,3
2023-05-15T01:36:52.030Z,4
2023-05-15T01:37:52.027Z,3
2023-05-15T01:39:52.015Z,4
2023-05-15T01:40:52.016Z,4
2023-05-15T01:41:52.000Z,3
2023-05-15T01:42:52.013Z,5
2023-05-15T01:43:52.032Z,3
2023-05-15T01:44:52.103Z,5
2023-05-15T01:45:52.060Z,5
2023-05-15T01:46:52.064Z,4
2023-05-15T01:47:52.102Z,8
2023-05-15T01:49:51.987Z,5
2023-05-15T01:50:52.016Z,6
2023-05-15T01:51:52.051Z,4
2023-05-15T01:52:52.016Z,4
2023-05-15T01:53:52.006Z,4
2023-05-15T01:54:52.011Z,3
2023-05-15T01:55:51.996Z,6
2023-05-15T01:56:52.021Z,6
2023-05-15T01:57:52.018Z,3
2023-05-15T01:58:52.006Z,4
2023-05-15T01:59:51.997Z,5
2023-05-15T02:00:52.003Z,5
2023-05-15T02:01:52.114Z,3
2023-05-15T02:02:52.121Z,4
2023-05-15T02:03:52.124Z,6
2023-05-15T02:04:52.006Z,5
2023-05-15T02:05:52.077Z,5
2023-05-15T02:06:52.017Z,6
2023-05-15T02:07:52.008Z,3
2023-05-15T02:08:52.008Z,5
2023-05-15T02:09:52.014Z,5
2023-05-15T02:10:52.017Z,3
2023-05-15T02:11:52.019Z,5
2023-05-15T02:12:52.018Z,3
2023-05-15T02:13:52.065Z,5
2023-05-15T02:14:52.015Z,3
2023-05-15T02:15:52.022Z,5
2023-05-15T02:16:51.999Z,6
2023-05-15T02:17:52.069Z,6
2023-05-15T02:18:52.088Z,6
2023-05-15T02:19:51.999Z,3
2023-05-15T02:21:51.996Z,8
2023-05-15T02:22:52.012Z,3
2023-05-15T02:23:52.014Z,5
2023-05-15T02:24:52.024Z,8
2023-05-15T02:25:52.122Z,3
2023-05-15T02:26:52.092Z,6
2023-05-15T02:27:52.020Z,3
2023-05-15T02:28:52.026Z,4
2023-05-15T02:29:52.035Z,5
2023-05-15T02:30:52.000Z,3
2023-05-15T02:31:52.051Z,4
2023-05-15T02:32:52.078Z,5
2023-05-15T02:33:52.078Z,5
2023-05-15T02:34:52.003Z,4
2023-05-15T02:35:51.996Z,5
2023-05-15T02:36:52.010Z,5
2023-05-15T02:37:52.020Z,3
2023-05-15T02:38:52.010Z,5
2023-05-15T02:39:52.020Z,6
2023-05-15T02:40:52.024Z,3
2023-05-15T02:41:51.995Z,7
2023-05-15T02:42:52.004Z,5
2023-05-15T02:43:51.998Z,5
2023-05-15T02:44:52.031Z,6
2023-05-15T02:45:52.023Z,6
2023-05-15T02:46:52.009Z,4
2023-05-15T02:47:52.082Z,6
2023-05-15T02:48:52.026Z,4
2023-05-15T02:49:52.000Z,6
2023-05-15T02:50:52.044Z,5
2023-05-15T02:52:52.041Z,7
2023-05-15T02:53:52.025Z,4
2023-05-15T02:54:52.013Z,7
2023-05-15T02:55:52.060Z,4
2023-05-15T02:56:52.014Z,5
2023-05-15T02:57:52.014Z,6
2023-05-15T02:58:52.025Z,7
2023-05-15T02:59:52.112Z,5
2023-05-15T03:00:52.020Z,7
2023-05-15T03:01:52.027Z,5
2023-05-15T03:02:52.158Z,6
2023-05-15T03:03:52.053Z,5
2023-05-15T03:04:52.016Z,7
2023-05-15T03:05:52.023Z,8
2023-05-15T03:06:52.025Z,5
2023-05-15T03:07:52.172Z,8
2023-05-15T03:09:52.031Z,5
2023-05-15T03:10:52.486Z,7
2023-05-15T03:11:52.021Z,8
2023-05-15T03:12:52.017Z,9
2023-05-15T03:13:52.031Z,5
2023-05-15T03:14:52.035Z,8
2023-05-15T03:15:52.029Z,7
2023-05-15T03:16:52.054Z,4
2023-05-15T03:17:52.168Z,8
2023-05-15T03:19:52.028Z,5
2023-05-15T03:20:52.016Z,7
2023-05-15T03:21:52.028Z,5
2023-05-15T03:22:52.011Z,5
2023-05-15T03:23:52.011Z,5
2023-05-15T03:24:52.032Z,7
2023-05-15T03:25:52.106Z,4
2023-05-15T03:26:52.014Z,5
2023-05-15T03:27:52.012Z,4
2023-05-15T03:28:51.997Z,5
2023-05-15T03:29:52.082Z,5
2023-05-15T03:30:52.024Z,5
2023-05-15T03:31:52.077Z,6
2023-05-15T03:32:52.097Z,9
2023-05-15T03:33:52.035Z,8
2023-05-15T03:34:52.008Z,9
2023-05-15T03:35:52.043Z,7
2023-05-15T03:36:52.018Z,6
2023-05-15T03:37:52.027Z,8
2023-05-15T03:38:52.037Z,6
2023-05-15T03:39:52.017Z,7
2023-05-15T03:40:52.006Z,4
2023-05-15T03:41:52.021Z,7
2023-05-15T03:42:52.024Z,7
2023-05-15T03:43:52.036Z,8
2023-05-15T03:44:52.035Z,4
2023-05-15T03:45:52.012Z,8
2023-05-15T03:46:52.075Z,6
2023-05-15T03:47:52.056Z,6
2023-05-15T03:48:52.018Z,6
2023-05-15T03:49:52.002Z,7
2023-05-15T03:50:52.011Z,8
2023-05-15T03:51:52.019Z,5
2023-05-15T03:52:52.024Z,9
2023-05-15T03:53:52.004Z,6
2023-05-15T03:54:52.038Z,7
2023-05-15T03:55:52.013Z,6
2023-05-15T03:57:52.025Z,9
2023-05-15T03:58:52.017Z,10
2023-05-15T03:59:52.030Z,4
2023-05-15T04:00:52.023Z,9
2023-05-15T04:02:03.509Z,8
2023-05-15T04:02:52.333Z,5
2023-05-15T04:03:52.027Z,7
2023-05-15T04:04:52.104Z,8
2023-05-15T04:05:52.009Z,4
2023-05-15T04:06:52.042Z,7
2023-05-15T04:07:52.036Z,7
2023-05-15T04:09:52.066Z,6
2023-05-15T04:10:52.033Z,6
2023-05-15T04:11:52.103Z,9
2023-05-15T04:12:52.036Z,5
2023-05-15T04:13:52.034Z,7
2023-05-15T04:14:52.024Z,10
2023-05-15T04:15:52.027Z,8
2023-05-15T04:16:52.147Z,6
2023-05-15T04:17:52.102Z,8
2023-05-15T04:18:52.080Z,9
2023-05-15T04:20:52.047Z,10
2023-05-15T04:22:52.046Z,15
2023-05-15T04:23:52.032Z,17
2023-05-15T04:24:52.030Z,16
2023-05-15T04:25:52.519Z,21
2023-05-15T04:27:52.024Z,20
2023-05-15T04:29:52.096Z,25
2023-05-15T04:30:52.023Z,26
2023-05-15T04:31:52.073Z,30
2023-05-15T04:33:52.033Z,37
2023-05-15T04:34:52.076Z,35
2023-05-15T04:35:52.026Z,40
2023-05-15T04:37:52.044Z,37
2023-05-15T04:38:52.034Z,35
2023-05-15T04:39:52.035Z,41
2023-05-15T04:40:52.019Z,28
2023-05-15T04:41:52.087Z,47
2023-05-15T04:42:52.041Z,46
2023-05-15T04:43:52.017Z,44
2023-05-15T04:44:52.028Z,28
2023-05-15T04:45:52.058Z,46
2023-05-15T04:46:52.066Z,46
2023-05-15T04:47:52.076Z,30
2023-05-15T04:48:52.046Z,44
2023-05-15T04:49:52.030Z,42
2023-05-15T04:50:52.015Z,42
2023-05-15T04:51:52.011Z,27
2023-05-15T04:52:52.040Z,44
2023-05-15T04:53:52.109Z,43
2023-05-15T04:54:52.034Z,46
2023-05-15T04:55:52.008Z,25
2023-05-15T04:56:52.035Z,42
2023-05-15T04:57:52.028Z,43
2023-05-15T04:59:52.025Z,25
2023-05-15T05:00:52.059Z,45
2023-05-15T05:01:52.153Z,46
2023-05-15T05:02:52.054Z,44
2023-05-15T05:03:52.094Z,28
2023-05-15T05:04:52.066Z,45
2023-05-15T05:05:52.033Z,47
2023-05-15T05:06:52.028Z,44
2023-05-15T05:07:52.034Z,42
2023-05-15T05:08:52.023Z,20
2023-05-15T05:09:52.028Z,40
2023-05-15T05:10:52.018Z,45
2023-05-15T05:11:52.037Z,40
2023-05-15T05:12:52.042Z,48
2023-05-15T05:13:52.035Z,27
2023-05-15T05:14:52.089Z,46
2023-05-15T05:15:52.062Z,44
2023-05-15T05:16:52.054Z,32
2023-05-15T05:17:52.054Z,46
2023-05-15T05:18:52.069Z,52
2023-05-15T05:19:52.064Z,48
2023-05-15T05:20:52.041Z,53
2023-05-15T05:21:52.010Z,34
2023-05-15T05:22:52.015Z,46
2023-05-15T05:23:52.047Z,52
2023-05-15T05:24:52.046Z,46
2023-05-15T05:25:52.022Z,34
2023-05-15T05:26:52.035Z,52
2023-05-15T05:27:52.030Z,53
2023-05-15T05:28:52.048Z,45
2023-05-15T05:29:52.034Z,29
2023-05-15T05:30:52.061Z,52
2023-05-15T05:31:52.130Z,50
2023-05-15T05:32:52.075Z,49
2023-05-15T05:33:52.043Z,36
2023-05-15T05:34:52.034Z,44
2023-05-15T05:35:52.050Z,54
2023-05-15T05:36:52.042Z,32
2023-05-15T05:37:52.053Z,51
2023-05-15T05:39:52.062Z,50
2023-05-15T05:40:52.038Z,33
2023-05-15T05:41:52.041Z,50
2023-05-15T05:42:52.088Z,49
2023-05-15T05:44:52.042Z,49
2023-05-15T05:45:52.024Z,58
2023-05-15T05:46:52.089Z,29
2023-05-15T05:47:52.050Z,54
2023-05-15T05:48:52.035Z,56
2023-05-15T05:49:52.048Z,52
2023-05-15T05:50:52.026Z,33
2023-05-15T05:51:52.063Z,51
2023-05-15T05:52:52.023Z,51
2023-05-15T05:53:52.042Z,52
2023-05-15T05:54:52.036Z,51
2023-05-15T05:55:52.024Z,28
2023-05-15T05:56:52.039Z,53
2023-05-15T05:57:52.030Z,53
2023-05-15T05:58:52.051Z,37
2023-05-15T05:59:52.045Z,53
2023-05-15T06:00:52.041Z,49
2023-05-15T06:01:52.077Z,56
2023-05-15T06:02:52.205Z,31
2023-05-15T06:04:52.333Z,52
2023-05-15T06:05:52.076Z,52
2023-05-15T06:06:52.042Z,34
2023-05-15T06:07:52.033Z,51
2023-05-15T06:08:54.165Z,51
2023-05-15T06:09:52.036Z,58
2023-05-15T06:10:52.029Z,33
2023-05-15T06:11:52.028Z,56
2023-05-15T06:12:52.044Z,54
2023-05-15T06:13:52.033Z,53
2023-05-15T06:14:52.042Z,55
2023-05-15T06:15:52.024Z,41
2023-05-15T06:16:52.058Z,55
2023-05-15T06:17:52.048Z,56
2023-05-15T06:18:52.074Z,55
2023-05-15T06:19:52.038Z,31
2023-05-15T06:20:52.047Z,56
2023-05-15T06:21:52.032Z,56
2023-05-15T06:22:52.039Z,40
2023-05-15T06:23:52.183Z,56
2023-05-15T06:24:52.041Z,57
2023-05-15T06:25:52.172Z,54
2023-05-15T06:27:52.051Z,38
2023-05-15T06:28:52.052Z,59
2023-05-15T06:29:52.048Z,56
2023-05-15T06:30:52.095Z,55
2023-05-15T06:31:52.035Z,33
2023-05-15T06:32:52.094Z,60
2023-05-15T06:33:52.051Z,59
2023-05-15T06:34:52.061Z,62
2023-05-15T06:35:52.047Z,67
2023-05-15T06:36:52.044Z,63
2023-05-15T06:37:52.083Z,36
2023-05-15T06:38:52.073Z,63
2023-05-15T06:40:52.038Z,63
2023-05-15T06:41:52.060Z,61
2023-05-15T06:42:52.065Z,38
2023-05-15T06:43:52.032Z,57
2023-05-15T06:44:52.054Z,62
2023-05-15T06:46:52.144Z,59
2023-05-15T06:47:52.052Z,57
2023-05-15T06:48:52.057Z,34
2023-05-15T06:49:52.052Z,63
2023-05-15T06:50:52.050Z,62
2023-05-15T06:51:52.028Z,57
2023-05-15T06:52:52.041Z,42
2023-05-15T06:53:52.068Z,59
2023-05-15T06:54:52.078Z,56
2023-05-15T06:55:52.029Z,58
2023-05-15T06:56:52.039Z,55
2023-05-15T06:57:52.073Z,34
2023-05-15T06:58:52.071Z,55
2023-05-15T06:59:52.205Z,53
2023-05-15T07:00:54.040Z,55
2023-05-15T07:01:52.111Z,33
2023-05-15T07:02:52.114Z,53
2023-05-15T07:03:52.106Z,48
2023-05-15T07:04:52.060Z,46
2023-05-15T07:05:52.086Z,25
2023-05-15T07:06:52.043Z,47
2023-05-15T07:07:52.065Z,41
2023-05-15T07:08:52.047Z,34
2023-05-15T07:09:52.043Z,45
2023-05-15T07:10:52.057Z,41
2023-05-15T07:11:52.059Z,40
2023-05-15T07:12:52.065Z,42
2023-05-15T07:13:52.680Z,24
2023-05-15T07:14:52.042Z,41
2023-05-15T07:15:52.104Z,41
2023-05-15T07:16:58.494Z,42
2023-05-15T07:17:52.137Z,40
2023-05-15T07:18:52.300Z,27
2023-05-15T07:19:52.062Z,43
2023-05-15T07:20:52.077Z,39
2023-05-15T07:21:52.048Z,27
2023-05-15T07:22:56.505Z,37
2023-05-15T07:23:52.083Z,43
2023-05-15T07:24:52.066Z,42
2023-05-15T07:25:52.052Z,43
2023-05-15T07:27:52.042Z,42
2023-05-15T07:28:52.132Z,45
2023-05-15T07:29:52.056Z,43
2023-05-15T07:30:52.098Z,26
2023-05-15T07:32:52.117Z,43
2023-05-15T07:33:52.068Z,39
2023-05-15T07:34:52.075Z,27
2023-05-15T07:35:52.055Z,41
2023-05-15T07:36:52.087Z,41
2023-05-15T07:37:52.070Z,42
2023-05-15T07:38:52.083Z,26
2023-05-15T07:39:52.109Z,41
2023-05-15T07:40:52.062Z,42
2023-05-15T07:41:52.059Z,44
2023-05-15T07:42:52.064Z,27
2023-05-15T07:43:52.051Z,39
2023-05-15T07:44:52.104Z,45
2023-05-15T07:45:52.159Z,24
2023-05-15T07:46:52.046Z,40
2023-05-15T07:47:52.093Z,42
2023-05-15T07:48:52.079Z,42
2023-05-15T07:49:52.054Z,26
2023-05-15T07:50:52.051Z,46
2023-05-15T07:51:52.056Z,44
2023-05-15T07:52:52.039Z,46
2023-05-15T07:53:52.064Z,46
2023-05-15T07:54:52.059Z,44
2023-05-15T07:55:52.043Z,29
2023-05-15T07:56:52.051Z,47
2023-05-15T07:57:53.714Z,44
2023-05-15T07:58:52.089Z,48
2023-05-15T07:59:52.078Z,48
2023-05-15T08:00:52.050Z,29
2023-05-15T08:02:52.105Z,44
2023-05-15T08:03:52.213Z,29
2023-05-15T08:04:52.066Z,42
2023-05-15T08:05:52.064Z,43
2023-05-15T08:06:52.047Z,45
2023-05-15T08:07:52.045Z,30
2023-05-15T08:08:52.057Z,43
2023-05-15T08:09:52.066Z,45
2023-05-15T08:10:52.057Z,45
2023-05-15T08:11:52.065Z,44
2023-05-15T08:12:52.048Z,44
2023-05-15T08:13:52.127Z,28
2023-05-15T08:14:52.075Z,51
2023-05-15T08:15:52.060Z,47
2023-05-15T08:17:52.135Z,51
2023-05-15T08:18:52.152Z,49
2023-05-15T08:19:52.070Z,49
2023-05-15T08:20:52.050Z,47
2023-05-15T08:21:52.044Z,49
2023-05-15T08:22:52.066Z,32
2023-05-15T08:23:53.568Z,47
2023-05-15T08:24:52.053Z,49
2023-05-15T08:25:52.123Z,46
2023-05-15T08:26:52.059Z,50
2023-05-15T08:27:52.072Z,51
2023-05-15T08:28:52.054Z,32
2023-05-15T08:29:52.065Z,47
2023-05-15T08:30:52.073Z,49
2023-05-15T08:31:52.075Z,50
2023-05-15T08:33:52.050Z,46
2023-05-15T08:34:52.100Z,53
2023-05-15T08:35:52.170Z,54
2023-05-15T08:36:52.093Z,54
2023-05-15T08:37:52.164Z,34
2023-05-15T08:38:52.055Z,53
2023-05-15T08:39:52.064Z,52
2023-05-15T08:40:52.064Z,52
2023-05-15T08:41:52.040Z,30
2023-05-15T08:42:52.066Z,52
2023-05-15T08:43:52.063Z,51
2023-05-15T08:44:52.054Z,54
2023-05-15T08:45:52.052Z,54
2023-05-15T08:46:52.073Z,56
2023-05-15T08:47:52.153Z,33
2023-05-15T08:48:52.169Z,52
2023-05-15T08:49:52.053Z,50
2023-05-15T08:50:52.065Z,51
2023-05-15T08:51:52.076Z,55
2023-05-15T08:52:52.074Z,49
2023-05-15T08:53:52.052Z,33
2023-05-15T08:54:52.052Z,46
2023-05-15T08:55:52.105Z,45
2023-05-15T08:56:52.061Z,48
2023-05-15T08:57:52.099Z,52
2023-05-15T08:58:52.062Z,31
2023-05-15T08:59:52.127Z,50
2023-05-15T09:00:52.131Z,53
2023-05-15T09:01:52.102Z,49
2023-05-15T09:02:52.097Z,52
2023-05-15T09:03:52.087Z,27
2023-05-15T09:04:52.089Z,47
2023-05-15T09:05:52.212Z,49
2023-05-15T09:06:52.063Z,49
2023-05-15T09:07:52.047Z,52
2023-05-15T09:08:52.074Z,28
2023-05-15T09:09:52.073Z,49
2023-05-15T09:10:52.236Z,48
2023-05-15T09:12:52.063Z,48
2023-05-15T09:13:52.085Z,48
2023-05-15T09:14:52.072Z,52
2023-05-15T09:15:52.281Z,28
2023-05-15T09:16:52.102Z,49
2023-05-15T09:17:52.133Z,47
2023-05-15T09:18:52.094Z,50
2023-05-15T09:19:52.063Z,49
2023-05-15T09:20:53.482Z,49
2023-05-15T09:21:52.157Z,52
2023-05-15T09:22:52.068Z,54
2023-05-15T09:23:52.072Z,32
2023-05-15T09:24:52.048Z,49
2023-05-15T09:25:52.051Z,51
2023-05-15T09:26:52.072Z,47
2023-05-15T09:27:52.085Z,52
2023-05-15T09:28:52.075Z,33
2023-05-15T09:29:52.074Z,50
2023-05-15T09:30:52.062Z,52
2023-05-15T09:31:52.133Z,53
2023-05-15T09:32:52.168Z,54
2023-05-15T09:34:52.072Z,55
2023-05-15T09:35:52.073Z,52
2023-05-15T09:36:52.110Z,50
2023-05-15T09:37:52.060Z,55
2023-05-15T09:38:52.063Z,52
2023-05-15T09:39:52.095Z,53
2023-05-15T09:40:52.055Z,52
2023-05-15T09:41:52.151Z,49
2023-05-15T09:42:52.097Z,45
2023-05-15T09:43:52.082Z,49
2023-05-15T09:44:52.075Z,31
2023-05-15T09:45:52.146Z,53
2023-05-15T09:46:52.130Z,53
2023-05-15T09:47:52.186Z,47
2023-05-15T09:48:52.072Z,52
2023-05-15T09:49:52.074Z,59
2023-05-15T09:50:52.101Z,49
2023-05-15T09:51:52.084Z,53
2023-05-15T09:52:52.064Z,53
2023-05-15T09:53:52.073Z,50
2023-05-15T09:54:52.061Z,49
2023-05-15T09:55:52.112Z,50
2023-05-15T09:56:52.077Z,50
2023-05-15T09:57:52.051Z,54
2023-05-15T09:58:52.075Z,52
2023-05-15T09:59:52.085Z,31
2023-05-15T10:00:52.125Z,47
2023-05-15T10:01:52.106Z,46
2023-05-15T10:02:52.123Z,50
2023-05-15T10:03:52.106Z,48
2023-05-15T10:04:52.105Z,50
2023-05-15T10:05:52.143Z,28
2023-05-15T10:06:52.085Z,44
2023-05-15T10:07:52.076Z,47
2023-05-15T10:08:52.059Z,46
2023-05-15T10:09:52.072Z,46
2023-05-15T10:10:52.076Z,51
2023-05-15T10:11:52.085Z,48
2023-05-15T10:12:52.078Z,50
2023-05-15T10:13:52.069Z,47
2023-05-15T10:14:52.082Z,49
2023-05-15T10:15:52.150Z,49
2023-05-15T10:16:52.084Z,48
2023-05-15T10:17:52.085Z,48
2023-05-15T10:18:52.082Z,50
2023-05-15T10:19:58.213Z,45
2023-05-15T10:20:52.078Z,40
2023-05-15T10:21:52.131Z,40
2023-05-15T10:22:52.078Z,39
2023-05-15T10:23:52.073Z,42
2023-05-15T10:24:52.077Z,37
2023-05-15T10:25:52.057Z,38
2023-05-15T10:26:52.074Z,38
2023-05-15T10:27:52.089Z,36
2023-05-15T10:28:52.118Z,35
2023-05-15T10:29:52.092Z,35
2023-05-15T10:30:52.124Z,37
2023-05-15T10:31:52.198Z,35
2023-05-15T10:32:52.107Z,38
2023-05-15T10:34:52.088Z,38
2023-05-15T10:35:52.100Z,34
2023-05-15T10:36:52.079Z,36
2023-05-15T10:37:52.077Z,36
2023-05-15T10:38:52.091Z,34
2023-05-15T10:39:52.101Z,36
2023-05-15T10:40:54.451Z,34
2023-05-15T10:41:52.054Z,33
2023-05-15T10:42:52.071Z,31
2023-05-15T10:43:52.074Z,31
2023-05-15T10:44:52.088Z,32
2023-05-15T10:45:52.054Z,33
2023-05-15T10:46:52.135Z,32
2023-05-15T10:47:52.108Z,36
2023-05-15T10:48:52.096Z,32
2023-05-15T10:49:52.079Z,35
2023-05-15T10:51:52.089Z,31
2023-05-15T10:52:52.067Z,34
2023-05-15T10:53:52.086Z,32
2023-05-15T10:54:52.084Z,30
2023-05-15T10:55:52.085Z,29
2023-05-15T10:56:52.508Z,34
2023-05-15T10:58:52.079Z,33
2023-05-15T10:59:52.080Z,29
2023-05-15T11:00:52.085Z,31
2023-05-15T11:01:52.082Z,30
2023-05-15T11:02:52.260Z,29
2023-05-15T11:03:53.914Z,32
2023-05-15T11:04:52.173Z,34
2023-05-15T11:05:52.101Z,30
2023-05-15T11:07:52.085Z,27
2023-05-15T11:08:52.095Z,30
2023-05-15T11:09:52.082Z,28
2023-05-15T11:10:52.064Z,26
2023-05-15T11:11:52.096Z,23
2023-05-15T11:13:52.065Z,24
2023-05-15T11:14:52.098Z,24
2023-05-15T11:15:52.080Z,24
2023-05-15T11:17:52.098Z,25
2023-05-15T11:18:52.130Z,27
2023-05-15T11:19:52.109Z,30
2023-05-15T11:20:52.131Z,25
2023-05-15T11:21:52.073Z,31
2023-05-15T11:22:52.087Z,26
2023-05-15T11:23:52.150Z,22
2023-05-15T11:24:52.091Z,23
2023-05-15T11:25:52.073Z,23
2023-05-15T11:26:52.106Z,25
2023-05-15T11:27:52.088Z,28
2023-05-15T11:28:52.166Z,27
2023-05-15T11:29:52.072Z,22
2023-05-15T11:30:52.158Z,26
2023-05-15T11:31:52.105Z,26
2023-05-15T11:32:52.262Z,24
2023-05-15T11:33:52.484Z,22
2023-05-15T11:34:52.070Z,25
2023-05-15T11:35:52.079Z,25
2023-05-15T11:36:52.089Z,25
2023-05-15T11:37:52.132Z,24
2023-05-15T11:38:52.161Z,24
2023-05-15T11:39:52.086Z,25
2023-05-15T11:40:52.125Z,22
2023-05-15T11:41:52.078Z,24
2023-05-15T11:42:52.117Z,25
2023-05-15T11:43:52.089Z,22
2023-05-15T11:44:52.100Z,20
2023-05-15T11:45:52.097Z,21
2023-05-15T11:46:52.186Z,20
2023-05-15T11:47:52.111Z,19
2023-05-15T11:48:52.219Z,20
2023-05-15T11:49:52.091Z,20
2023-05-15T11:50:52.079Z,23
2023-05-15T11:51:52.100Z,19
2023-05-15T11:52:52.129Z,20
2023-05-15T11:53:52.080Z,20
2023-05-15T11:54:52.088Z,19
2023-05-15T11:55:52.131Z,20
2023-05-15T11:56:52.167Z,23
2023-05-15T11:58:52.167Z,20
2023-05-15T11:59:52.096Z,19
2023-05-15T12:00:52.104Z,19
2023-05-15T12:01:52.095Z,17
2023-05-15T12:03:52.218Z,20
2023-05-15T12:04:52.139Z,21
2023-05-15T12:05:58.870Z,19
2023-05-15T12:06:52.100Z,20
2023-05-15T12:07:52.167Z,19
2023-05-15T12:08:52.116Z,16
2023-05-15T12:09:52.086Z,18
2023-05-15T12:10:52.081Z,19
2023-05-15T12:11:52.107Z,20
2023-05-15T12:12:52.097Z,19
2023-05-15T12:13:52.110Z,17
2023-05-15T12:14:52.166Z,20
2023-05-15T12:15:52.114Z,18
2023-05-15T12:16:52.235Z,18
2023-05-15T12:17:52.194Z,20
2023-05-15T12:18:52.220Z,18
2023-05-15T12:19:52.097Z,18
2023-05-15T12:20:52.162Z,16
2023-05-15T12:21:52.122Z,14
2023-05-15T12:22:52.124Z,14
2023-05-15T12:24:03.557Z,15
2023-05-15T12:24:52.132Z,12
2023-05-15T12:25:52.115Z,15
2023-05-15T12:26:52.102Z,12
2023-05-15T12:27:52.116Z,14
2023-05-15T12:28:52.113Z,14
2023-05-15T12:29:52.107Z,13
2023-05-15T12:30:52.117Z,14
2023-05-15T12:31:52.137Z,15
2023-05-15T12:32:52.287Z,14
2023-05-15T12:33:52.123Z,14
2023-05-15T12:34:52.123Z,17
2023-05-15T12:35:52.268Z,15
2023-05-15T12:36:52.090Z,15
2023-05-15T12:37:52.119Z,15
2023-05-15T12:38:52.163Z,12
2023-05-15T12:39:52.140Z,12
2023-05-15T12:40:52.113Z,15
2023-05-15T12:41:52.168Z,13
2023-05-15T12:42:52.110Z,15
2023-05-15T12:43:52.139Z,15
2023-05-15T12:44:52.099Z,17
2023-05-15T12:45:52.159Z,16
2023-05-15T12:46:52.126Z,15
2023-05-15T12:47:52.176Z,14
2023-05-15T12:48:52.122Z,13
2023-05-15T12:49:52.102Z,14
2023-05-15T12:50:52.113Z,16
2023-05-15T12:51:52.127Z,15
2023-05-15T12:52:52.124Z,13
2023-05-15T12:53:52.106Z,16
2023-05-15T12:54:52.099Z,15
2023-05-15T12:55:52.119Z,14
2023-05-15T12:56:52.101Z,17
2023-05-15T12:57:52.126Z,17
2023-05-15T12:58:52.103Z,15
2023-05-15T12:59:52.197Z,15
2023-05-15T13:00:52.104Z,16
2023-05-15T13:01:52.165Z,15
2023-05-15T13:02:52.213Z,13
2023-05-15T13:03:52.301Z,14
2023-05-15T13:04:52.112Z,13
2023-05-15T13:05:52.093Z,13
2023-05-15T13:06:52.137Z,13
2023-05-15T13:07:52.114Z,13
2023-05-15T13:08:52.148Z,14
2023-05-15T13:09:52.113Z,14
2023-05-15T13:10:52.113Z,15
2023-05-15T13:11:52.158Z,13
2023-05-15T13:12:52.106Z,16
2023-05-15T13:13:52.123Z,15
2023-05-15T13:15:52.157Z,11
2023-05-15T13:16:52.137Z,11
2023-05-15T13:17:52.224Z,11
2023-05-15T13:18:52.257Z,14
2023-05-15T13:19:52.109Z,13
2023-05-15T13:20:52.220Z,14
2023-05-15T13:21:52.114Z,10
2023-05-15T13:22:52.141Z,10
2023-05-15T13:23:52.150Z,13
2023-05-15T13:24:52.094Z,12
2023-05-15T13:25:52.101Z,12
2023-05-15T13:26:52.107Z,13
2023-05-15T13:27:52.109Z,14
2023-05-15T13:28:52.111Z,10
2023-05-15T13:29:52.165Z,10
2023-05-15T13:30:52.111Z,9
2023-05-15T13:31:52.220Z,12
2023-05-15T13:32:55.397Z,11
2023-05-15T13:33:52.116Z,10
2023-05-15T13:34:52.118Z,13
2023-05-15T13:36:24.545Z,11
2023-05-15T13:36:52.117Z,14
2023-05-15T13:38:52.222Z,14
2023-05-15T13:39:52.114Z,10
2023-05-15T13:40:52.121Z,8
2023-05-15T13:41:52.125Z,10
2023-05-15T13:42:52.132Z,9
2023-05-15T13:43:52.141Z,11
2023-05-15T13:44:52.125Z,11
2023-05-15T13:45:52.116Z,10
2023-05-15T13:46:52.160Z,12
2023-05-15T13:47:52.175Z,11
2023-05-15T13:48:52.147Z,12
2023-05-15T13:49:52.115Z,12
2023-05-15T13:50:52.112Z,11
2023-05-15T13:51:52.157Z,13
2023-05-15T13:52:52.150Z,13
2023-05-15T13:53:52.148Z,12
2023-05-15T13:54:52.137Z,13
2023-05-15T13:55:52.172Z,14
2023-05-15T13:56:52.158Z,9
2023-05-15T13:57:52.136Z,11
2023-05-15T13:58:52.121Z,9
2023-05-15T13:59:52.127Z,10
2023-05-15T14:00:52.167Z,11
2023-05-15T14:01:52.135Z,12
2023-05-15T14:02:52.173Z,12
2023-05-15T14:03:52.170Z,11
2023-05-15T14:04:52.146Z,10
2023-05-15T14:05:52.127Z,13
2023-05-15T14:06:52.137Z,12
2023-05-15T14:07:52.143Z,11
2023-05-15T14:08:52.149Z,12
2023-05-15T14:09:52.139Z,11
2023-05-15T14:10:52.129Z,11
2023-05-15T14:11:52.149Z,10
2023-05-15T14:12:52.145Z,10
2023-05-15T14:13:52.161Z,9
2023-05-15T14:14:52.161Z,8
2023-05-15T14:15:52.129Z,10
2023-05-15T14:16:52.209Z,8
2023-05-15T14:17:52.161Z,11
2023-05-15T14:18:52.194Z,10
2023-05-15T14:19:52.134Z,10
2023-05-15T14:20:52.131Z,11
2023-05-15T14:21:52.152Z,10
2023-05-15T14:22:52.144Z,10
2023-05-15T14:23:52.152Z,9
2023-05-15T14:24:52.136Z,11
2023-05-15T14:28:52.139Z,11
2023-05-15T14:29:52.122Z,10
2023-05-15T14:30:52.119Z,11
2023-05-15T14:31:52.264Z,11
2023-05-15T14:32:52.162Z,12
2023-05-15T14:33:52.622Z,10
2023-05-15T14:34:52.202Z,12
2023-05-15T14:35:52.166Z,10
2023-05-15T14:36:52.130Z,11
2023-05-15T14:37:52.172Z,12
2023-05-15T14:38:52.114Z,10
2023-05-15T14:39:52.143Z,11
2023-05-15T14:40:52.164Z,10
2023-05-15T14:42:52.153Z,10
2023-05-15T14:43:52.118Z,12
2023-05-15T14:44:52.154Z,9
2023-05-15T14:45:52.139Z,10
2023-05-15T14:46:52.144Z,8
2023-05-15T14:47:52.172Z,10
2023-05-15T14:48:52.139Z,9
2023-05-15T14:49:52.144Z,9
2023-05-15T14:50:52.137Z,9
2023-05-15T14:51:52.127Z,11
2023-05-15T14:52:52.137Z,9
2023-05-15T14:53:52.129Z,9
2023-05-15T14:55:04.856Z,7
2023-05-15T14:55:52.117Z,7
2023-05-15T14:56:52.139Z,8
2023-05-15T14:57:52.131Z,7
2023-05-15T14:58:52.116Z,7
2023-05-15T14:59:52.134Z,7
2023-05-15T15:00:52.138Z,9
2023-05-15T15:01:52.183Z,8
2023-05-15T15:02:52.235Z,8
2023-05-15T15:03:52.568Z,8
2023-05-15T15:04:52.173Z,8
2023-05-15T15:05:52.128Z,11
2023-05-15T15:06:52.137Z,11
2023-05-15T15:07:52.172Z,11
2023-05-15T15:08:52.211Z,15
2023-05-15T15:09:52.124Z,16
2023-05-15T15:10:52.132Z,14
2023-05-15T15:11:52.148Z,18
2023-05-15T15:12:52.134Z,17
2023-05-15T15:13:52.125Z,15